KNEW/NEW METAR and TAF weather

Enter ICAO airport designator
Station Type Date Time Source
KNEW METAR 2019/04/25 09:53 UTC NOAA

KNEW 250953Z AUTO 15008KT 10SM CLR 21/20 A2987 RMK AO2 SLP109 T02110200


Station Type Date Time Source
KNEW Decoded METAR 2019/04/25 09:53 UTC NOAA

NEW ORLEANS LAKEFRONT AIRPORT , LA, United States (KNEW) 30-03N 90-02W 3M
Apr 25, 2019 - 05:53 AM EDT / 2019.04.25 0953 UTC
Wind: from the SSE (150 degrees) at 9 MPH (8 KT):0
Visibility: 10 mile(s):0
Sky conditions: clear
Temperature: 70.0 F (21.1 C)
Dew Point: 68.0 F (20.0 C)
Relative Humidity: 93%
Pressure (altimeter): 29.87 in. Hg (1011 hPa)
ob: KNEW 250953Z AUTO 15008KT 10SM CLR 21/20 A2987 RMK AO2 SLP109 T02110200
cycle: 10

Station Type Date Time Source
KNEW TAF 2019/04/25 06:22 UTC NOAA

TAF KNEW 250520Z 2506/2606 15007KT P6SM SCT030 BKN250
FM251200 17008KT 3SM SHRA SCT040 BKN090
TEMPO 2512/2515 2SM TSRA BKN040CB
FM251500 18012G21KT 3SM SHRA VCTS SCT020CB BKN050
FM251800 17014KT 1SM SHRA VCTS SCT025CB BKN090
FM260000 22010KT P6SM SCT025 BKN100
FM260300 25010KT P6SM FEW020 SCT090

Example: see airport list